sensor_id;sensor_type;location;lat;lon;timestamp;P1;durP1;ratioP1;P2;durP2;ratioP2
74963;SDS011;63521;51.900;4.748;2023-02-28T00:01:17;1.00;;;0.80;;
74963;SDS011;63521;51.900;4.748;2023-02-28T00:03:43;0.82;;;0.82;;
74963;SDS011;63521;51.900;4.748;2023-02-28T00:06:09;1.77;;;0.95;;
74963;SDS011;63521;51.900;4.748;2023-02-28T00:08:35;1.50;;;1.00;;
74963;SDS011;63521;51.900;4.748;2023-02-28T00:11:02;1.92;;;0.98;;
74963;SDS011;63521;51.900;4.748;2023-02-28T00:13:28;1.98;;;0.90;;
74963;SDS011;63521;51.900;4.748;2023-02-28T00:16:04;2.20;;;1.20;;
74963;SDS011;63521;51.900;4.748;2023-02-28T00:21:03;1.08;;;0.90;;
74963;SDS011;63521;51.900;4.748;2023-02-28T00:23:29;1.00;;;0.80;;
74963;SDS011;63521;51.900;4.748;2023-02-28T00:25:55;1.20;;;0.90;;
74963;SDS011;63521;51.900;4.748;2023-02-28T00:28:20;1.20;;;0.90;;
74963;SDS011;63521;51.900;4.748;2023-02-28T00:30:46;1.60;;;0.80;;
74963;SDS011;63521;51.900;4.748;2023-02-28T00:33:12;2.00;;;1.10;;
74963;SDS011;63521;51.900;4.748;2023-02-28T00:35:37;1.75;;;1.10;;
74963;SDS011;63521;51.900;4.748;2023-02-28T00:38:03;1.25;;;0.93;;
74963;SDS011;63521;51.900;4.748;2023-02-28T00:40:28;1.33;;;0.70;;
74963;SDS011;63521;51.900;4.748;2023-02-28T00:42:54;2.80;;;0.98;;
74963;SDS011;63521;51.900;4.748;2023-02-28T00:45:19;1.20;;;0.90;;
74963;SDS011;63521;51.900;4.748;2023-02-28T00:47:45;1.40;;;0.80;;
74963;SDS011;63521;51.900;4.748;2023-02-28T00:50:12;1.33;;;0.95;;
74963;SDS011;63521;51.900;4.748;2023-02-28T00:52:37;1.13;;;0.98;;
74963;SDS011;63521;51.900;4.748;2023-02-28T00:55:03;1.25;;;0.95;;
74963;SDS011;63521;51.900;4.748;2023-02-28T00:57:29;1.52;;;1.10;;
74963;SDS011;63521;51.900;4.748;2023-02-28T00:59:54;1.38;;;1.10;;
74963;SDS011;63521;51.900;4.748;2023-02-28T01:02:20;1.70;;;1.00;;
74963;SDS011;63521;51.900;4.748;2023-02-28T01:04:47;1.30;;;0.80;;
74963;SDS011;63521;51.900;4.748;2023-02-28T01:07:12;1.25;;;0.80;;
74963;SDS011;63521;51.900;4.748;2023-02-28T01:09:38;1.58;;;1.10;;
74963;SDS011;63521;51.900;4.748;2023-02-28T01:12:04;1.20;;;0.90;;
74963;SDS011;63521;51.900;4.748;2023-02-28T01:14:29;1.02;;;0.80;;
74963;SDS011;63521;51.900;4.748;2023-02-28T01:16:55;1.60;;;0.93;;
74963;SDS011;63521;51.900;4.748;2023-02-28T01:19:20;1.38;;;0.95;;
74963;SDS011;63521;51.900;4.748;2023-02-28T01:21:46;1.63;;;0.82;;
74963;SDS011;63521;51.900;4.748;2023-02-28T01:24:14;0.80;;;0.80;;
74963;SDS011;63521;51.900;4.748;2023-02-28T01:26:39;1.95;;;0.80;;
74963;SDS011;63521;51.900;4.748;2023-02-28T01:29:04;0.75;;;0.75;;
74963;SDS011;63521;51.900;4.748;2023-02-28T01:31:30;2.35;;;0.90;;
74963;SDS011;63521;51.900;4.748;2023-02-28T01:33:55;2.75;;;1.00;;
74963;SDS011;63521;51.900;4.748;2023-02-28T01:36:22;1.00;;;0.90;;
74963;SDS011;63521;51.900;4.748;2023-02-28T01:38:50;1.25;;;0.90;;
74963;SDS011;63521;51.900;4.748;2023-02-28T01:41:18;1.10;;;1.00;;
74963;SDS011;63521;51.900;4.748;2023-02-28T01:44:07;1.10;;;0.90;;
74963;SDS011;63521;51.900;4.748;2023-02-28T01:47:09;2.38;;;0.93;;
74963;SDS011;63521;51.900;4.748;2023-02-28T01:49:35;2.00;;;0.95;;
74963;SDS011;63521;51.900;4.748;2023-02-28T01:52:01;1.20;;;1.10;;
74963;SDS011;63521;51.900;4.748;2023-02-28T01:54:30;1.10;;;0.88;;
74963;SDS011;63521;51.900;4.748;2023-02-28T01:56:58;2.60;;;1.20;;
74963;SDS011;63521;51.900;4.748;2023-02-28T01:59:27;1.88;;;0.80;;
74963;SDS011;63521;51.900;4.748;2023-02-28T02:01:56;1.17;;;0.90;;
74963;SDS011;63521;51.900;4.748;2023-02-28T02:04:23;1.40;;;0.80;;
74963;SDS011;63521;51.900;4.748;2023-02-28T02:06:51;1.42;;;0.90;;
74963;SDS011;63521;51.900;4.748;2023-02-28T02:09:17;1.42;;;0.93;;
74963;SDS011;63521;51.900;4.748;2023-02-28T02:11:42;1.05;;;0.82;;
74963;SDS011;63521;51.900;4.748;2023-02-28T02:17:31;0.88;;;0.70;;
74963;SDS011;63521;51.900;4.748;2023-02-28T02:20:24;1.00;;;0.90;;
74963;SDS011;63521;51.900;4.748;2023-02-28T02:23:02;1.00;;;0.90;;
74963;SDS011;63521;51.900;4.748;2023-02-28T02:28:21;2.00;;;1.00;;
74963;SDS011;63521;51.900;4.748;2023-02-28T02:31:05;1.20;;;0.90;;
74963;SDS011;63521;51.900;4.748;2023-02-28T02:39:36;2.03;;;1.33;;
74963;SDS011;63521;51.900;4.748;2023-02-28T02:43:11;1.77;;;1.02;;
74963;SDS011;63521;51.900;4.748;2023-02-28T02:45:12;1.17;;;0.95;;
74963;SDS011;63521;51.900;4.748;2023-02-28T02:47:42;1.77;;;0.75;;
74963;SDS011;63521;51.900;4.748;2023-02-28T02:50:11;1.00;;;0.85;;
74963;SDS011;63521;51.900;4.748;2023-02-28T02:52:44;1.00;;;0.85;;
74963;SDS011;63521;51.900;4.748;2023-02-28T02:55:13;1.85;;;0.90;;
74963;SDS011;63521;51.900;4.748;2023-02-28T02:57:47;2.45;;;0.98;;
74963;SDS011;63521;51.900;4.748;2023-02-28T03:00:16;0.80;;;0.80;;
74963;SDS011;63521;51.900;4.748;2023-02-28T03:02:43;1.55;;;1.00;;
74963;SDS011;63521;51.900;4.748;2023-02-28T03:05:20;0.70;;;0.68;;
74963;SDS011;63521;51.900;4.748;2023-02-28T03:07:49;1.25;;;0.80;;
74963;SDS011;63521;51.900;4.748;2023-02-28T03:10:27;1.40;;;0.88;;
74963;SDS011;63521;51.900;4.748;2023-02-28T03:13:00;1.20;;;1.10;;
74963;SDS011;63521;51.900;4.748;2023-02-28T03:15:34;1.17;;;0.85;;
74963;SDS011;63521;51.900;4.748;2023-02-28T03:18:16;0.73;;;0.70;;
74963;SDS011;63521;51.900;4.748;2023-02-28T03:21:33;0.85;;;0.85;;
74963;SDS011;63521;51.900;4.748;2023-02-28T03:23:44;2.40;;;0.98;;
74963;SDS011;63521;51.900;4.748;2023-02-28T03:26:23;1.25;;;0.93;;
74963;SDS011;63521;51.900;4.748;2023-02-28T03:28:53;1.92;;;1.00;;
74963;SDS011;63521;51.900;4.748;2023-02-28T03:31:27;1.17;;;0.90;;
74963;SDS011;63521;51.900;4.748;2023-02-28T03:34:08;1.95;;;0.93;;
74963;SDS011;63521;51.900;4.748;2023-02-28T03:36:59;2.65;;;1.10;;
74963;SDS011;63521;51.900;4.748;2023-02-28T03:39:27;0.90;;;0.85;;
74963;SDS011;63521;51.900;4.748;2023-02-28T03:44:22;1.65;;;0.93;;
74963;SDS011;63521;51.900;4.748;2023-02-28T03:47:25;1.05;;;0.98;;
74963;SDS011;63521;51.900;4.748;2023-02-28T03:52:20;3.40;;;0.98;;
74963;SDS011;63521;51.900;4.748;2023-02-28T03:54:52;1.90;;;1.02;;
74963;SDS011;63521;51.900;4.748;2023-02-28T03:57:26;1.67;;;1.00;;
74963;SDS011;63521;51.900;4.748;2023-02-28T03:59:59;1.92;;;1.20;;
74963;SDS011;63521;51.900;4.748;2023-02-28T04:02:31;2.05;;;1.20;;
74963;SDS011;63521;51.900;4.748;2023-02-28T04:04:57;1.85;;;1.05;;
74963;SDS011;63521;51.900;4.748;2023-02-28T04:07:22;1.15;;;0.82;;
74963;SDS011;63521;51.900;4.748;2023-02-28T04:09:47;1.58;;;0.90;;
74963;SDS011;63521;51.900;4.748;2023-02-28T04:12:13;1.65;;;1.27;;
74963;SDS011;63521;51.900;4.748;2023-02-28T04:14:39;2.15;;;1.15;;
74963;SDS011;63521;51.900;4.748;2023-02-28T04:17:04;2.50;;;1.23;;
74963;SDS011;63521;51.900;4.748;2023-02-28T04:19:29;1.73;;;1.10;;
74963;SDS011;63521;51.900;4.748;2023-02-28T04:21:55;1.33;;;1.10;;
74963;SDS011;63521;51.900;4.748;2023-02-28T04:24:21;1.20;;;1.00;;
74963;SDS011;63521;51.900;4.748;2023-02-28T04:26:49;1.75;;;1.10;;
74963;SDS011;63521;51.900;4.748;2023-02-28T04:29:20;2.40;;;1.38;;
74963;SDS011;63521;51.900;4.748;2023-02-28T04:31:50;1.60;;;1.08;;
74963;SDS011;63521;51.900;4.748;2023-02-28T04:34:19;1.85;;;1.00;;
74963;SDS011;63521;51.900;4.748;2023-02-28T04:36:49;1.85;;;1.10;;
74963;SDS011;63521;51.900;4.748;2023-02-28T04:39:15;2.67;;;1.10;;
74963;SDS011;63521;51.900;4.748;2023-02-28T04:41:48;1.13;;;0.88;;
74963;SDS011;63521;51.900;4.748;2023-02-28T04:44:14;1.20;;;1.00;;
74963;SDS011;63521;51.900;4.748;2023-02-28T04:46:40;1.85;;;1.17;;
74963;SDS011;63521;51.900;4.748;2023-02-28T04:49:06;1.73;;;1.00;;
74963;SDS011;63521;51.900;4.748;2023-02-28T04:51:31;1.30;;;0.70;;
74963;SDS011;63521;51.900;4.748;2023-02-28T04:53:56;1.55;;;1.00;;
74963;SDS011;63521;51.900;4.748;2023-02-28T04:56:22;1.35;;;1.00;;
74963;SDS011;63521;51.900;4.748;2023-02-28T04:58:48;1.13;;;0.98;;
74963;SDS011;63521;51.900;4.748;2023-02-28T05:01:24;1.85;;;1.15;;
74963;SDS011;63521;51.900;4.748;2023-02-28T05:03:51;1.75;;;1.00;;
74963;SDS011;63521;51.900;4.748;2023-02-28T05:06:18;2.05;;;1.45;;
74963;SDS011;63521;51.900;4.748;2023-02-28T05:08:45;2.47;;;1.40;;
74963;SDS011;63521;51.900;4.748;2023-02-28T05:11:15;2.00;;;1.40;;
74963;SDS011;63521;51.900;4.748;2023-02-28T05:13:46;3.35;;;1.42;;
74963;SDS011;63521;51.900;4.748;2023-02-28T05:16:12;2.55;;;1.50;;
74963;SDS011;63521;51.900;4.748;2023-02-28T05:18:38;1.95;;;1.23;;
74963;SDS011;63521;51.900;4.748;2023-02-28T05:21:03;2.70;;;1.60;;
74963;SDS011;63521;51.900;4.748;2023-02-28T05:23:29;1.60;;;1.20;;
74963;SDS011;63521;51.900;4.748;2023-02-28T05:25:54;3.28;;;1.40;;
74963;SDS011;63521;51.900;4.748;2023-02-28T05:28:20;3.45;;;1.70;;
74963;SDS011;63521;51.900;4.748;2023-02-28T05:30:48;3.33;;;1.52;;
74963;SDS011;63521;51.900;4.748;2023-02-28T05:33:14;2.83;;;1.83;;
74963;SDS011;63521;51.900;4.748;2023-02-28T05:35:40;3.17;;;1.67;;
74963;SDS011;63521;51.900;4.748;2023-02-28T05:38:06;2.95;;;1.88;;
74963;SDS011;63521;51.900;4.748;2023-02-28T05:40:32;2.45;;;1.85;;
74963;SDS011;63521;51.900;4.748;2023-02-28T05:42:57;2.60;;;1.70;;
74963;SDS011;63521;51.900;4.748;2023-02-28T05:45:22;3.15;;;2.10;;
74963;SDS011;63521;51.900;4.748;2023-02-28T05:47:48;2.25;;;1.77;;
74963;SDS011;63521;51.900;4.748;2023-02-28T05:50:13;2.80;;;1.85;;
74963;SDS011;63521;51.900;4.748;2023-02-28T05:52:39;3.25;;;1.77;;
74963;SDS011;63521;51.900;4.748;2023-02-28T05:55:04;3.47;;;1.83;;
74963;SDS011;63521;51.900;4.748;2023-02-28T05:57:30;3.63;;;2.42;;
74963;SDS011;63521;51.900;4.748;2023-02-28T05:59:55;2.65;;;1.70;;
74963;SDS011;63521;51.900;4.748;2023-02-28T06:02:21;3.97;;;2.13;;
74963;SDS011;63521;51.900;4.748;2023-02-28T06:04:46;5.13;;;2.03;;
74963;SDS011;63521;51.900;4.748;2023-02-28T06:07:12;3.40;;;1.90;;
74963;SDS011;63521;51.900;4.748;2023-02-28T06:09:37;3.70;;;2.08;;
74963;SDS011;63521;51.900;4.748;2023-02-28T06:12:03;3.33;;;2.15;;
74963;SDS011;63521;51.900;4.748;2023-02-28T06:14:30;2.55;;;1.85;;
74963;SDS011;63521;51.900;4.748;2023-02-28T06:16:57;5.03;;;2.13;;
74963;SDS011;63521;51.900;4.748;2023-02-28T06:19:23;3.10;;;1.90;;
74963;SDS011;63521;51.900;4.748;2023-02-28T06:21:50;3.38;;;2.25;;
74963;SDS011;63521;51.900;4.748;2023-02-28T06:24:17;2.90;;;1.77;;
74963;SDS011;63521;51.900;4.748;2023-02-28T06:26:43;2.30;;;1.60;;
74963;SDS011;63521;51.900;4.748;2023-02-28T06:29:09;3.05;;;1.90;;
74963;SDS011;63521;51.900;4.748;2023-02-28T06:31:34;3.55;;;2.28;;
74963;SDS011;63521;51.900;4.748;2023-02-28T06:34:00;2.75;;;1.80;;
74963;SDS011;63521;51.900;4.748;2023-02-28T06:36:25;2.65;;;1.85;;
74963;SDS011;63521;51.900;4.748;2023-02-28T06:38:51;2.75;;;1.90;;
74963;SDS011;63521;51.900;4.748;2023-02-28T06:41:20;3.58;;;1.63;;
74963;SDS011;63521;51.900;4.748;2023-02-28T06:43:46;2.60;;;1.77;;
74963;SDS011;63521;51.900;4.748;2023-02-28T06:46:13;3.25;;;1.80;;
74963;SDS011;63521;51.900;4.748;2023-02-28T06:48:45;3.35;;;1.75;;
74963;SDS011;63521;51.900;4.748;2023-02-28T06:52:21;2.95;;;1.90;;
74963;SDS011;63521;51.900;4.748;2023-02-28T06:59:39;2.25;;;1.60;;
74963;SDS011;63521;51.900;4.748;2023-02-28T07:02:51;2.17;;;1.52;;
74963;SDS011;63521;51.900;4.748;2023-02-28T07:05:18;2.40;;;1.60;;
74963;SDS011;63521;51.900;4.748;2023-02-28T07:07:44;3.17;;;1.90;;
74963;SDS011;63521;51.900;4.748;2023-02-28T07:10:11;3.95;;;1.60;;
74963;SDS011;63521;51.900;4.748;2023-02-28T07:12:38;2.58;;;1.88;;
74963;SDS011;63521;51.900;4.748;2023-02-28T07:15:04;2.40;;;1.60;;
74963;SDS011;63521;51.900;4.748;2023-02-28T07:17:30;2.15;;;1.42;;
74963;SDS011;63521;51.900;4.748;2023-02-28T07:19:55;2.60;;;1.75;;
74963;SDS011;63521;51.900;4.748;2023-02-28T07:22:21;2.00;;;1.48;;
74963;SDS011;63521;51.900;4.748;2023-02-28T07:24:46;1.65;;;1.30;;
74963;SDS011;63521;51.900;4.748;2023-02-28T07:27:11;2.53;;;1.88;;
74963;SDS011;63521;51.900;4.748;2023-02-28T07:29:37;2.15;;;1.60;;
74963;SDS011;63521;51.900;4.748;2023-02-28T07:32:03;2.72;;;1.60;;
74963;SDS011;63521;51.900;4.748;2023-02-28T07:34:28;2.33;;;1.60;;
74963;SDS011;63521;51.900;4.748;2023-02-28T07:36:54;2.92;;;1.50;;
74963;SDS011;63521;51.900;4.748;2023-02-28T07:39:20;2.92;;;1.40;;
74963;SDS011;63521;51.900;4.748;2023-02-28T07:41:47;1.80;;;1.48;;
74963;SDS011;63521;51.900;4.748;2023-02-28T07:44:12;2.08;;;1.45;;
74963;SDS011;63521;51.900;4.748;2023-02-28T07:46:38;2.90;;;1.48;;
74963;SDS011;63521;51.900;4.748;2023-02-28T07:49:04;1.83;;;1.30;;
74963;SDS011;63521;51.900;4.748;2023-02-28T07:51:30;1.40;;;1.25;;
74963;SDS011;63521;51.900;4.748;2023-02-28T07:53:55;1.90;;;1.40;;
74963;SDS011;63521;51.900;4.748;2023-02-28T07:56:21;1.48;;;1.38;;
74963;SDS011;63521;51.900;4.748;2023-02-28T07:58:46;1.70;;;1.23;;
74963;SDS011;63521;51.900;4.748;2023-02-28T08:01:12;2.08;;;1.40;;
74963;SDS011;63521;51.900;4.748;2023-02-28T08:03:38;2.22;;;1.55;;
74963;SDS011;63521;51.900;4.748;2023-02-28T08:06:04;1.85;;;1.40;;
74963;SDS011;63521;51.900;4.748;2023-02-28T08:08:31;2.25;;;1.33;;
74963;SDS011;63521;51.900;4.748;2023-02-28T08:11:00;1.38;;;1.10;;
74963;SDS011;63521;51.900;4.748;2023-02-28T08:13:27;2.08;;;1.40;;
74963;SDS011;63521;51.900;4.748;2023-02-28T08:15:54;3.40;;;1.67;;
74963;SDS011;63521;51.900;4.748;2023-02-28T08:18:20;1.58;;;1.20;;
74963;SDS011;63521;51.900;4.748;2023-02-28T08:20:46;3.42;;;1.35;;
74963;SDS011;63521;51.900;4.748;2023-02-28T08:23:11;2.08;;;1.30;;
74963;SDS011;63521;51.900;4.748;2023-02-28T08:25:36;2.08;;;1.20;;
74963;SDS011;63521;51.900;4.748;2023-02-28T08:28:02;1.45;;;1.10;;
74963;SDS011;63521;51.900;4.748;2023-02-28T08:32:53;1.50;;;1.20;;
74963;SDS011;63521;51.900;4.748;2023-02-28T08:35:19;1.67;;;1.05;;
74963;SDS011;63521;51.900;4.748;2023-02-28T08:37:44;2.38;;;1.10;;
74963;SDS011;63521;51.900;4.748;2023-02-28T08:40:12;1.23;;;0.90;;
74963;SDS011;63521;51.900;4.748;2023-02-28T08:42:44;1.90;;;1.20;;
74963;SDS011;63521;51.900;4.748;2023-02-28T08:45:11;1.27;;;1.15;;
74963;SDS011;63521;51.900;4.748;2023-02-28T08:47:37;1.63;;;1.13;;
74963;SDS011;63521;51.900;4.748;2023-02-28T08:50:03;1.88;;;1.10;;
74963;SDS011;63521;51.900;4.748;2023-02-28T08:52:29;2.05;;;1.33;;
74963;SDS011;63521;51.900;4.748;2023-02-28T08:54:54;2.38;;;1.42;;
74963;SDS011;63521;51.900;4.748;2023-02-28T08:57:20;1.50;;;1.20;;
74963;SDS011;63521;51.900;4.748;2023-02-28T08:59:45;2.45;;;1.25;;
74963;SDS011;63521;51.900;4.748;2023-02-28T09:02:12;1.30;;;1.05;;
74963;SDS011;63521;51.900;4.748;2023-02-28T09:04:38;2.25;;;1.10;;
74963;SDS011;63521;51.900;4.748;2023-02-28T09:07:07;1.33;;;1.10;;
74963;SDS011;63521;51.900;4.748;2023-02-28T09:09:33;1.40;;;1.25;;
74963;SDS011;63521;51.900;4.748;2023-02-28T09:11:58;2.63;;;1.45;;
74963;SDS011;63521;51.900;4.748;2023-02-28T09:14:24;2.45;;;1.00;;
74963;SDS011;63521;51.900;4.748;2023-02-28T09:16:49;1.38;;;1.05;;
74963;SDS011;63521;51.900;4.748;2023-02-28T09:19:14;1.35;;;1.15;;
74963;SDS011;63521;51.900;4.748;2023-02-28T09:21:40;1.77;;;1.17;;
74963;SDS011;63521;51.900;4.748;2023-02-28T09:24:05;2.08;;;1.30;;
74963;SDS011;63521;51.900;4.748;2023-02-28T09:26:31;1.77;;;1.00;;
74963;SDS011;63521;51.900;4.748;2023-02-28T09:28:57;1.45;;;1.20;;
74963;SDS011;63521;51.900;4.748;2023-02-28T09:31:24;1.65;;;1.20;;
74963;SDS011;63521;51.900;4.748;2023-02-28T09:33:52;1.63;;;1.27;;
74963;SDS011;63521;51.900;4.748;2023-02-28T09:36:18;1.92;;;1.35;;
74963;SDS011;63521;51.900;4.748;2023-02-28T09:38:44;2.47;;;1.40;;
74963;SDS011;63521;51.900;4.748;2023-02-28T09:41:16;1.58;;;1.30;;
74963;SDS011;63521;51.900;4.748;2023-02-28T09:43:44;2.88;;;1.88;;
74963;SDS011;63521;51.900;4.748;2023-02-28T09:46:21;2.35;;;1.55;;
74963;SDS011;63521;51.900;4.748;2023-02-28T09:48:50;3.60;;;1.73;;
74963;SDS011;63521;51.900;4.748;2023-02-28T09:51:32;2.25;;;1.45;;
74963;SDS011;63521;51.900;4.748;2023-02-28T09:54:00;2.78;;;1.50;;
74963;SDS011;63521;51.900;4.748;2023-02-28T09:56:28;1.88;;;1.48;;
74963;SDS011;63521;51.900;4.748;2023-02-28T10:06:48;3.22;;;1.48;;
74963;SDS011;63521;51.900;4.748;2023-02-28T10:09:30;2.70;;;1.67;;
74963;SDS011;63521;51.900;4.748;2023-02-28T10:12:00;2.75;;;1.92;;
74963;SDS011;63521;51.900;4.748;2023-02-28T10:14:29;2.92;;;1.70;;
74963;SDS011;63521;51.900;4.748;2023-02-28T10:16:59;2.83;;;1.70;;
74963;SDS011;63521;51.900;4.748;2023-02-28T10:19:40;3.05;;;2.00;;
74963;SDS011;63521;51.900;4.748;2023-02-28T10:22:19;3.20;;;1.88;;
74963;SDS011;63521;51.900;4.748;2023-02-28T10:24:58;2.78;;;1.58;;
74963;SDS011;63521;51.900;4.748;2023-02-28T10:27:31;3.53;;;2.03;;
74963;SDS011;63521;51.900;4.748;2023-02-28T10:29:58;2.70;;;1.63;;
74963;SDS011;63521;51.900;4.748;2023-02-28T10:35:14;2.70;;;2.00;;
74963;SDS011;63521;51.900;4.748;2023-02-28T10:37:51;3.50;;;2.17;;
74963;SDS011;63521;51.900;4.748;2023-02-28T10:42:54;5.82;;;2.00;;
74963;SDS011;63521;51.900;4.748;2023-02-28T10:45:21;3.03;;;1.90;;
74963;SDS011;63521;51.900;4.748;2023-02-28T10:47:53;3.55;;;2.22;;
74963;SDS011;63521;51.900;4.748;2023-02-28T10:50:31;4.38;;;2.10;;
74963;SDS011;63521;51.900;4.748;2023-02-28T10:53:07;3.25;;;2.28;;
74963;SDS011;63521;51.900;4.748;2023-02-28T10:55:40;3.28;;;2.15;;
74963;SDS011;63521;51.900;4.748;2023-02-28T10:58:22;3.45;;;2.13;;
74963;SDS011;63521;51.900;4.748;2023-02-28T11:00:48;3.67;;;2.30;;
74963;SDS011;63521;51.900;4.748;2023-02-28T11:03:33;3.80;;;2.42;;
74963;SDS011;63521;51.900;4.748;2023-02-28T11:06:04;2.45;;;1.92;;
74963;SDS011;63521;51.900;4.748;2023-02-28T11:08:31;4.32;;;2.03;;
74963;SDS011;63521;51.900;4.748;2023-02-28T11:10:58;2.55;;;2.10;;
74963;SDS011;63521;51.900;4.748;2023-02-28T11:13:32;2.90;;;1.92;;
74963;SDS011;63521;51.900;4.748;2023-02-28T11:16:02;4.85;;;2.20;;
74963;SDS011;63521;51.900;4.748;2023-02-28T11:18:30;3.38;;;2.00;;
74963;SDS011;63521;51.900;4.748;2023-02-28T11:21:01;2.30;;;2.00;;
74963;SDS011;63521;51.900;4.748;2023-02-28T11:23:29;3.60;;;2.35;;
74963;SDS011;63521;51.900;4.748;2023-02-28T11:25:59;3.03;;;2.13;;
74963;SDS011;63521;51.900;4.748;2023-02-28T11:28:30;2.47;;;2.03;;
74963;SDS011;63521;51.900;4.748;2023-02-28T11:33:27;2.45;;;2.10;;
74963;SDS011;63521;51.900;4.748;2023-02-28T11:35:58;3.60;;;2.35;;
74963;SDS011;63521;51.900;4.748;2023-02-28T11:38:29;3.28;;;1.90;;
74963;SDS011;63521;51.900;4.748;2023-02-28T11:41:02;2.65;;;2.08;;
74963;SDS011;63521;51.900;4.748;2023-02-28T11:52:25;3.47;;;2.30;;
74963;SDS011;63521;51.900;4.748;2023-02-28T11:55:06;4.28;;;2.58;;
74963;SDS011;63521;51.900;4.748;2023-02-28T12:00:33;2.90;;;2.05;;
74963;SDS011;63521;51.900;4.748;2023-02-28T12:05:57;2.20;;;1.70;;
74963;SDS011;63521;51.900;4.748;2023-02-28T12:17:31;2.97;;;1.80;;
74963;SDS011;63521;51.900;4.748;2023-02-28T12:25:54;3.08;;;1.58;;
74963;SDS011;63521;51.900;4.748;2023-02-28T12:28:41;2.15;;;1.70;;
74963;SDS011;63521;51.900;4.748;2023-02-28T12:31:11;2.78;;;1.95;;
74963;SDS011;63521;51.900;4.748;2023-02-28T12:33:46;3.35;;;2.00;;
74963;SDS011;63521;51.900;4.748;2023-02-28T12:36:16;4.88;;;2.13;;
74963;SDS011;63521;51.900;4.748;2023-02-28T12:41:15;2.15;;;1.95;;
74963;SDS011;63521;51.900;4.748;2023-02-28T12:43:44;2.40;;;1.80;;
74963;SDS011;63521;51.900;4.748;2023-02-28T12:46:15;3.05;;;2.00;;
74963;SDS011;63521;51.900;4.748;2023-02-28T12:48:52;2.92;;;2.10;;
74963;SDS011;63521;51.900;4.748;2023-02-28T12:51:21;3.40;;;2.05;;
74963;SDS011;63521;51.900;4.748;2023-02-28T12:59:03;3.22;;;2.10;;
74963;SDS011;63521;51.900;4.748;2023-02-28T13:13:17;2.75;;;1.70;;
74963;SDS011;63521;51.900;4.748;2023-02-28T13:16:02;2.92;;;2.03;;
74963;SDS011;63521;51.900;4.748;2023-02-28T13:18:33;2.72;;;1.88;;
74963;SDS011;63521;51.900;4.748;2023-02-28T13:21:08;2.70;;;1.83;;
74963;SDS011;63521;51.900;4.748;2023-02-28T13:26:12;2.55;;;1.83;;
74963;SDS011;63521;51.900;4.748;2023-02-28T13:31:23;3.33;;;1.98;;
74963;SDS011;63521;51.900;4.748;2023-02-28T13:38:46;3.55;;;2.33;;
74963;SDS011;63521;51.900;4.748;2023-02-28T13:44:00;2.92;;;2.08;;
74963;SDS011;63521;51.900;4.748;2023-02-28T13:46:29;2.30;;;1.80;;
74963;SDS011;63521;51.900;4.748;2023-02-28T13:48:54;3.13;;;2.10;;
74963;SDS011;63521;51.900;4.748;2023-02-28T14:04:49;2.67;;;1.92;;
74963;SDS011;63521;51.900;4.748;2023-02-28T14:07:30;5.28;;;2.00;;
74963;SDS011;63521;51.900;4.748;2023-02-28T14:10:16;4.63;;;2.10;;
74963;SDS011;63521;51.900;4.748;2023-02-28T14:18:05;3.30;;;2.20;;
74963;SDS011;63521;51.900;4.748;2023-02-28T14:20:38;3.55;;;2.05;;
74963;SDS011;63521;51.900;4.748;2023-02-28T14:23:17;3.65;;;2.17;;
74963;SDS011;63521;51.900;4.748;2023-02-28T14:31:18;2.67;;;2.08;;
74963;SDS011;63521;51.900;4.748;2023-02-28T14:33:57;3.78;;;2.00;;
74963;SDS011;63521;51.900;4.748;2023-02-28T14:39:03;3.60;;;2.15;;
74963;SDS011;63521;51.900;4.748;2023-02-28T14:44:02;3.00;;;1.90;;
74963;SDS011;63521;51.900;4.748;2023-02-28T14:46:39;2.90;;;1.98;;
74963;SDS011;63521;51.900;4.748;2023-02-28T14:49:06;3.53;;;2.30;;
74963;SDS011;63521;51.900;4.748;2023-02-28T14:51:32;3.00;;;1.90;;
74963;SDS011;63521;51.900;4.748;2023-02-28T14:53:59;2.47;;;2.08;;
74963;SDS011;63521;51.900;4.748;2023-02-28T14:56:36;4.00;;;2.10;;
74963;SDS011;63521;51.900;4.748;2023-02-28T14:59:03;3.13;;;1.85;;
74963;SDS011;63521;51.900;4.748;2023-02-28T15:01:29;2.80;;;2.20;;
74963;SDS011;63521;51.900;4.748;2023-02-28T15:04:06;3.28;;;2.03;;
74963;SDS011;63521;51.900;4.748;2023-02-28T15:06:31;3.00;;;2.20;;
74963;SDS011;63521;51.900;4.748;2023-02-28T15:09:11;3.20;;;1.88;;
74963;SDS011;63521;51.900;4.748;2023-02-28T15:11:40;3.42;;;2.20;;
74963;SDS011;63521;51.900;4.748;2023-02-28T15:14:06;3.28;;;2.30;;
74963;SDS011;63521;51.900;4.748;2023-02-28T15:16:35;3.00;;;2.10;;
74963;SDS011;63521;51.900;4.748;2023-02-28T15:21:51;2.97;;;2.22;;
74963;SDS011;63521;51.900;4.748;2023-02-28T15:27:03;2.85;;;2.22;;
74963;SDS011;63521;51.900;4.748;2023-02-28T15:29:32;2.50;;;2.00;;
74963;SDS011;63521;51.900;4.748;2023-02-28T15:32:04;1.98;;;1.77;;
74963;SDS011;63521;51.900;4.748;2023-02-28T15:34:35;2.17;;;1.70;;
74963;SDS011;63521;51.900;4.748;2023-02-28T15:37:02;3.00;;;2.10;;
74963;SDS011;63521;51.900;4.748;2023-02-28T15:39:49;2.92;;;2.00;;
74963;SDS011;63521;51.900;4.748;2023-02-28T15:42:18;3.50;;;2.33;;
74963;SDS011;63521;51.900;4.748;2023-02-28T15:44:46;5.00;;;2.10;;
74963;SDS011;63521;51.900;4.748;2023-02-28T15:47:22;2.97;;;2.10;;
74963;SDS011;63521;51.900;4.748;2023-02-28T15:49:52;3.28;;;2.00;;
74963;SDS011;63521;51.900;4.748;2023-02-28T15:52:22;3.80;;;2.15;;
74963;SDS011;63521;51.900;4.748;2023-02-28T15:54:53;2.97;;;2.13;;
74963;SDS011;63521;51.900;4.748;2023-02-28T15:57:20;3.10;;;2.03;;
74963;SDS011;63521;51.900;4.748;2023-02-28T15:59:55;3.00;;;2.30;;
74963;SDS011;63521;51.900;4.748;2023-02-28T16:02:32;3.15;;;2.08;;
74963;SDS011;63521;51.900;4.748;2023-02-28T16:05:00;3.00;;;2.15;;
74963;SDS011;63521;51.900;4.748;2023-02-28T16:07:26;3.33;;;2.22;;
74963;SDS011;63521;51.900;4.748;2023-02-28T16:09:52;2.78;;;1.77;;
74963;SDS011;63521;51.900;4.748;2023-02-28T16:12:18;2.72;;;2.13;;
74963;SDS011;63521;51.900;4.748;2023-02-28T16:14:44;3.47;;;2.30;;
74963;SDS011;63521;51.900;4.748;2023-02-28T16:17:20;2.08;;;1.80;;
74963;SDS011;63521;51.900;4.748;2023-02-28T16:19:48;2.90;;;1.90;;
74963;SDS011;63521;51.900;4.748;2023-02-28T16:22:13;3.35;;;2.10;;
74963;SDS011;63521;51.900;4.748;2023-02-28T16:24:48;4.05;;;2.10;;
74963;SDS011;63521;51.900;4.748;2023-02-28T16:27:16;2.75;;;1.98;;
74963;SDS011;63521;51.900;4.748;2023-02-28T16:29:44;3.42;;;2.30;;
74963;SDS011;63521;51.900;4.748;2023-02-28T16:32:11;2.80;;;1.80;;
74963;SDS011;63521;51.900;4.748;2023-02-28T16:34:38;3.55;;;2.15;;
74963;SDS011;63521;51.900;4.748;2023-02-28T16:37:04;3.38;;;1.90;;
74963;SDS011;63521;51.900;4.748;2023-02-28T16:39:33;2.47;;;1.90;;
74963;SDS011;63521;51.900;4.748;2023-02-28T16:41:58;3.42;;;2.30;;
74963;SDS011;63521;51.900;4.748;2023-02-28T16:44:27;3.83;;;2.00;;
74963;SDS011;63521;51.900;4.748;2023-02-28T16:46:55;3.05;;;2.10;;
74963;SDS011;63521;51.900;4.748;2023-02-28T16:49:20;2.80;;;2.08;;
74963;SDS011;63521;51.900;4.748;2023-02-28T16:51:46;2.95;;;2.00;;
74963;SDS011;63521;51.900;4.748;2023-02-28T16:54:11;3.78;;;2.38;;
74963;SDS011;63521;51.900;4.748;2023-02-28T16:56:37;3.05;;;1.90;;
74963;SDS011;63521;51.900;4.748;2023-02-28T16:59:04;3.35;;;2.05;;
74963;SDS011;63521;51.900;4.748;2023-02-28T17:01:29;2.90;;;1.85;;
74963;SDS011;63521;51.900;4.748;2023-02-28T17:03:55;2.50;;;1.77;;
74963;SDS011;63521;51.900;4.748;2023-02-28T17:06:25;3.10;;;1.95;;
74963;SDS011;63521;51.900;4.748;2023-02-28T17:08:52;3.53;;;1.70;;
74963;SDS011;63521;51.900;4.748;2023-02-28T17:11:18;2.08;;;1.67;;
74963;SDS011;63521;51.900;4.748;2023-02-28T17:13:43;2.42;;;1.70;;
74963;SDS011;63521;51.900;4.748;2023-02-28T17:18:56;2.97;;;1.70;;
74963;SDS011;63521;51.900;4.748;2023-02-28T17:21:23;2.95;;;1.83;;
74963;SDS011;63521;51.900;4.748;2023-02-28T17:23:48;3.47;;;1.90;;